createdAt,value
2022-08-10T00:00:59.627Z,97222.19
2022-08-10T00:03:29.284Z,97220.13
2022-08-10T00:05:59.209Z,97212.34
2022-08-10T00:08:30.129Z,97213.84
2022-08-10T00:10:59.964Z,97211.69
2022-08-10T00:13:31.567Z,97217.91
2022-08-10T00:16:01.401Z,97213.75
2022-08-10T00:18:35.277Z,97211.22
2022-08-10T00:21:08.252Z,97223.44
2022-08-10T00:23:39.636Z,97219.28
2022-08-10T00:26:09.707Z,97213.47
2022-08-10T00:28:40.507Z,97216.94
2022-08-10T00:31:10.185Z,97221.50
2022-08-10T00:33:39.987Z,97216.94
2022-08-10T00:36:09.687Z,97232.59
2022-08-10T00:38:39.253Z,97225.94
2022-08-10T00:41:08.985Z,97226.50
2022-08-10T00:43:38.619Z,97223.75
2022-08-10T00:46:08.036Z,97234.69
2022-08-10T00:48:37.729Z,97235.25
2022-08-10T00:51:07.557Z,97233.44
2022-08-10T00:53:37.499Z,97237.19
2022-08-10T00:56:35.060Z,97240.66
2022-08-10T00:58:57.187Z,97238.41
2022-08-10T01:02:10.133Z,97245.09
2022-08-10T01:04:39.727Z,97254.13
2022-08-10T01:07:36.213Z,97257.56
2022-08-10T01:10:20.727Z,97265.88
2022-08-10T01:12:56.771Z,97268.97
2022-08-10T01:15:38.580Z,97257.28
2022-08-10T01:18:37.815Z,97269.47
2022-08-10T01:21:25.998Z,97273.38
2022-08-10T01:24:39.608Z,97274.75
2022-08-10T01:27:41.828Z,97273.91
2022-08-10T01:30:16.946Z,97279.19
2022-08-10T01:33:12.579Z,97271.00
2022-08-10T01:35:51.298Z,97275.72
2022-08-10T01:38:40.404Z,97274.00
2022-08-10T01:41:14.161Z,97273.88
2022-08-10T01:43:47.944Z,97280.38
2022-08-10T01:46:18.822Z,97277.22
2022-08-10T01:48:55.060Z,97261.94
2022-08-10T01:51:40.806Z,97264.66
2022-08-10T01:54:14.462Z,97266.47
2022-08-10T01:56:50.337Z,97267.22
2022-08-10T01:59:35.056Z,97272.44
2022-08-10T02:02:08.203Z,97280.19
2022-08-10T02:04:42.964Z,97277.19
2022-08-10T02:07:18.354Z,97278.75
2022-08-10T02:09:53.004Z,97270.50
2022-08-10T02:12:27.763Z,97266.47
2022-08-10T02:15:07.686Z,97274.72
2022-08-10T02:17:57.600Z,97276.25
2022-08-10T02:20:39.519Z,97276.69
2022-08-10T02:23:19.476Z,97275.78
2022-08-10T02:25:51.056Z,97271.88
2022-08-10T02:28:30.422Z,97273.84
2022-08-10T02:31:10.394Z,97285.88
2022-08-10T02:33:57.463Z,97293.31
2022-08-10T02:36:33.320Z,97302.09
2022-08-10T02:39:06.285Z,97304.13
2022-08-10T02:45:02.061Z,97292.78
2022-08-10T02:45:23.047Z,97297.34
2022-08-10T02:48:01.865Z,97300.50
2022-08-10T02:50:36.507Z,97316.34
2022-08-10T02:53:55.318Z,97311.16
2022-08-10T02:56:28.023Z,97301.09
2022-08-10T02:59:02.372Z,97307.91
2022-08-10T03:01:36.395Z,97306.47
2022-08-10T03:04:16.514Z,97316.03
2022-08-10T03:06:53.883Z,97322.50
2022-08-10T03:09:25.703Z,97324.97
2022-08-10T03:12:37.699Z,97316.06
2022-08-10T03:14:47.757Z,97319.22
2022-08-10T03:17:18.677Z,97320.22
2022-08-10T03:20:34.943Z,97319.88
2022-08-10T03:22:39.480Z,97326.44
2022-08-10T03:25:13.717Z,97315.97
2022-08-10T03:27:45.386Z,97329.06
2022-08-10T03:30:28.522Z,97318.50
2022-08-10T03:33:06.603Z,97320.41
2022-08-10T03:35:36.492Z,97326.09
2022-08-10T03:38:06.967Z,97317.38
2022-08-10T03:40:46.424Z,97313.91
2022-08-10T03:43:22.316Z,97309.97
2022-08-10T03:45:56.712Z,97313.63
2022-08-10T03:48:42.418Z,97308.31
2022-08-10T03:51:21.643Z,97312.69
2022-08-10T03:54:05.093Z,97317.06
2022-08-10T03:56:38.516Z,97318.25
2022-08-10T03:59:10.829Z,97317.75
2022-08-10T04:02:45.056Z,97318.50
2022-08-10T04:04:31.818Z,97314.50
2022-08-10T04:07:02.896Z,97324.22
2022-08-10T04:09:53.117Z,97321.41
2022-08-10T04:12:26.829Z,97313.13
2022-08-10T04:14:56.778Z,97316.59
2022-08-10T04:18:03.541Z,97319.78
2022-08-10T04:20:37.914Z,97318.81
2022-08-10T04:23:13.724Z,97321.97
2022-08-10T04:25:43.793Z,97315.16
2022-08-10T04:28:14.370Z,97323.78
2022-08-10T04:30:46.378Z,97321.66
2022-08-10T04:33:19.504Z,97328.13
2022-08-10T04:35:51.183Z,97321.78
2022-08-10T04:38:22.699Z,97327.13
2022-08-10T04:40:54.125Z,97321.38
2022-08-10T04:43:24.228Z,97321.72
2022-08-10T04:45:55.037Z,97322.28
2022-08-10T04:48:41.044Z,97320.81
2022-08-10T04:51:18.712Z,97322.56
2022-08-10T04:54:15.964Z,97321.22
2022-08-10T04:56:45.105Z,97317.38
2022-08-10T04:59:14.319Z,97321.34
2022-08-10T05:02:30.530Z,97314.81
2022-08-10T05:04:38.988Z,97319.66
2022-08-10T05:07:16.289Z,97313.50
2022-08-10T05:10:02.311Z,97316.56
2022-08-10T05:12:37.691Z,97313.75
2022-08-10T05:15:22.810Z,97307.31
2022-08-10T05:18:04.643Z,97311.84
2022-08-10T05:20:44.539Z,97301.91
2022-08-10T05:23:17.739Z,97315.84
2022-08-10T05:25:47.854Z,97302.97
2022-08-10T05:28:17.682Z,97302.88
2022-08-10T05:30:47.584Z,97308.09
2022-08-10T05:33:17.906Z,97307.09
2022-08-10T05:35:55.452Z,97314.84
2022-08-10T05:38:30.984Z,97298.19
2022-08-10T05:41:02.392Z,97290.41
2022-08-10T05:43:31.949Z,97286.31
2022-08-10T05:46:17.571Z,97284.00
2022-08-10T05:48:59.061Z,97295.78
2022-08-10T05:51:32.090Z,97292.81
2022-08-10T05:54:06.566Z,97281.72
2022-08-10T05:56:54.799Z,97289.41
2022-08-10T06:00:33.870Z,97295.25
2022-08-10T06:02:35.337Z,97291.91
2022-08-10T06:05:38.284Z,97277.09
2022-08-10T06:08:17.621Z,97277.94
2022-08-10T06:12:23.857Z,97277.84
2022-08-10T06:14:12.434Z,97265.25
2022-08-10T06:16:46.004Z,97259.72
2022-08-10T06:19:15.088Z,97262.91
2022-08-10T06:22:00.470Z,97258.91
2022-08-10T06:24:57.277Z,97257.59
2022-08-10T06:27:34.320Z,97246.66
2022-08-10T06:30:04.871Z,97248.50
2022-08-10T06:32:52.753Z,97236.53
2022-08-10T06:38:11.575Z,97233.19
2022-08-10T06:40:45.138Z,97234.31
2022-08-10T06:43:18.663Z,97234.41
2022-08-10T06:46:08.038Z,97234.97
2022-08-10T06:48:47.719Z,97237.88
2022-08-10T06:51:24.782Z,97237.81
2022-08-10T06:54:00.687Z,97230.84
2022-08-10T06:56:37.803Z,97236.31
2022-08-10T06:59:28.254Z,97225.66
2022-08-10T07:02:10.977Z,97226.13
2022-08-10T07:04:48.134Z,97229.69
2022-08-10T07:07:20.981Z,97226.84
2022-08-10T07:09:52.263Z,97222.91
2022-08-10T07:12:23.913Z,97218.28
2022-08-10T07:14:55.125Z,97214.72
2022-08-10T07:17:28.260Z,97217.84
2022-08-10T07:20:00.907Z,97222.00
2022-08-10T07:23:11.067Z,97215.00
2022-08-10T07:25:26.176Z,97214.34
2022-08-10T07:27:59.303Z,97210.28
2022-08-10T07:30:34.324Z,97211.16
2022-08-10T07:33:06.047Z,97212.06
2022-08-10T07:35:42.207Z,97207.81
2022-08-10T07:38:19.927Z,97204.16
2022-08-10T07:40:52.273Z,97192.47
2022-08-10T07:43:25.698Z,97191.91
2022-08-10T07:45:57.163Z,97199.88
2022-08-10T07:48:33.766Z,97195.47
2022-08-10T07:51:04.795Z,97194.34
2022-08-10T07:53:40.332Z,97196.50
2022-08-10T07:56:26.355Z,97187.50
2022-08-10T07:59:11.197Z,97184.34
2022-08-10T08:01:49.496Z,97183.53
2022-08-10T08:04:23.037Z,97181.50
2022-08-10T08:06:54.855Z,97181.88
2022-08-10T08:09:25.030Z,97180.84
2022-08-10T08:11:55.785Z,97174.47
2022-08-10T08:14:27.524Z,97172.22
2022-08-10T08:16:57.898Z,97171.66
2022-08-10T08:19:35.519Z,97164.44
2022-08-10T08:24:08.802Z,97159.72
2022-08-10T08:25:01.758Z,97150.06
2022-08-10T08:27:31.583Z,97157.13
2022-08-10T08:30:02.907Z,97160.22
2022-08-10T08:32:36.489Z,97163.06
2022-08-10T08:35:13.088Z,97162.66
2022-08-10T08:38:30.453Z,97160.25
2022-08-10T08:40:37.746Z,97158.13
2022-08-10T08:43:16.377Z,97159.78
2022-08-10T08:46:10.671Z,97157.84
2022-08-10T08:49:09.621Z,97154.44
2022-08-10T08:52:07.420Z,97139.13
2022-08-10T08:55:04.195Z,97142.13
2022-08-10T08:58:17.595Z,97141.09
2022-08-10T09:01:22.122Z,97136.66
2022-08-10T09:04:19.912Z,97126.34
2022-08-10T09:08:02.294Z,97112.63
2022-08-10T09:11:10.040Z,97118.53
2022-08-10T09:13:50.128Z,97108.41
2022-08-10T09:16:39.711Z,97108.69
2022-08-10T09:19:42.794Z,97110.16
2022-08-10T09:22:32.840Z,97108.97
2022-08-10T09:25:24.062Z,97104.06
2022-08-10T09:28:02.550Z,97097.06
2022-08-10T09:31:10.749Z,97089.03
2022-08-10T09:36:23.358Z,97083.47
2022-08-10T09:37:58.674Z,97072.78
2022-08-10T09:41:01.019Z,97075.41
2022-08-10T09:43:53.499Z,97074.63
2022-08-10T09:46:34.618Z,97064.63
2022-08-10T09:49:57.803Z,97061.38
2022-08-10T09:52:58.712Z,97047.81
2022-08-10T09:56:17.985Z,97036.28
2022-08-10T09:58:46.972Z,97035.44
2022-08-10T10:02:03.835Z,97026.00
2022-08-10T10:04:50.143Z,97020.66
2022-08-10T10:07:32.751Z,97014.44
2022-08-10T10:10:10.186Z,97009.88
2022-08-10T10:13:04.025Z,97011.13
2022-08-10T10:15:52.116Z,97007.84
2022-08-10T10:18:48.939Z,97002.28
2022-08-10T10:21:54.409Z,97006.09
2022-08-10T10:24:30.512Z,97008.56
2022-08-10T10:27:16.846Z,97000.19
2022-08-10T10:30:06.748Z,97001.97
2022-08-10T10:32:58.128Z,96991.69
2022-08-10T10:35:40.002Z,96983.31
2022-08-10T10:38:13.221Z,96984.97
2022-08-10T10:41:02.653Z,96990.00
2022-08-10T10:43:58.821Z,96972.78
2022-08-10T10:46:46.427Z,96964.09
2022-08-10T10:49:35.014Z,96970.69
2022-08-10T10:52:06.698Z,96969.97
2022-08-10T10:55:06.215Z,96953.38
2022-08-10T10:58:07.812Z,96956.94
2022-08-10T11:00:58.212Z,96961.19
2022-08-10T11:03:45.459Z,96961.25
2022-08-10T11:06:57.999Z,96954.44
2022-08-10T11:10:03.401Z,96946.16
2022-08-10T11:12:46.819Z,96943.69
2022-08-10T11:15:50.370Z,96949.34
2022-08-10T11:18:34.807Z,96946.34
2022-08-10T11:21:21.709Z,96943.34
2022-08-10T11:24:47.213Z,96947.69
2022-08-10T11:27:50.005Z,96946.63
2022-08-10T11:30:47.180Z,96942.75
2022-08-10T11:34:04.209Z,96942.34
2022-08-10T11:36:46.552Z,96948.75
2022-08-10T11:39:31.731Z,96948.75
2022-08-10T11:42:19.122Z,96945.88
2022-08-10T11:45:19.221Z,96932.53
2022-08-10T11:48:13.676Z,96932.03
2022-08-10T11:51:14.056Z,96935.66
2022-08-10T11:54:05.899Z,96934.91
2022-08-10T11:56:49.323Z,96936.19
2022-08-10T11:59:39.682Z,96931.63
2022-08-10T12:02:11.691Z,96926.47
2022-08-10T12:04:43.400Z,96917.88
2022-08-10T12:10:07.017Z,96919.66
2022-08-10T12:10:13.374Z,96915.00
2022-08-10T12:12:57.100Z,96915.81
2022-08-10T12:15:44.837Z,96915.25
2022-08-10T12:18:49.243Z,96916.06
2022-08-10T12:21:28.954Z,96912.28
2022-08-10T12:24:14.857Z,96911.06
2022-08-10T12:27:04.567Z,96904.88
2022-08-10T12:29:53.245Z,96897.81
2022-08-10T12:32:46.663Z,96889.81
2022-08-10T12:36:18.406Z,96886.59
2022-08-10T12:39:16.662Z,96891.38
2022-08-10T12:42:37.036Z,96891.69
2022-08-10T12:45:15.125Z,96885.19
2022-08-10T12:48:31.348Z,96885.53
2022-08-10T12:51:04.027Z,96885.19
2022-08-10T12:53:53.475Z,96879.09
2022-08-10T12:56:29.820Z,96888.66
2022-08-10T12:59:01.952Z,96887.25
2022-08-10T13:02:07.711Z,96900.97
2022-08-10T13:04:33.033Z,96902.03
2022-08-10T13:07:05.965Z,96900.03
2022-08-10T13:09:55.657Z,96896.91
2022-08-10T13:12:37.152Z,96889.66
2022-08-10T13:15:45.867Z,96898.56
2022-08-10T13:18:18.733Z,96901.34
2022-08-10T13:20:55.739Z,96903.63
2022-08-10T13:23:31.487Z,96892.56
2022-08-10T13:26:05.227Z,96903.09
2022-08-10T13:28:50.676Z,96890.84
2022-08-10T13:32:03.433Z,96898.72
2022-08-10T13:34:42.184Z,96891.59
2022-08-10T13:37:18.571Z,96889.19
2022-08-10T13:39:59.163Z,96894.41
2022-08-10T13:42:37.973Z,96897.53
2022-08-10T13:45:26.250Z,96907.00
2022-08-10T13:48:13.959Z,96910.78
2022-08-10T13:50:45.310Z,96913.34
2022-08-10T13:53:34.974Z,96913.34
2022-08-10T13:56:06.395Z,96909.88
2022-08-10T13:58:38.913Z,96917.41
2022-08-10T14:01:16.983Z,96915.53
2022-08-10T14:03:50.205Z,96930.00
2022-08-10T14:06:29.650Z,96929.19
2022-08-10T14:09:11.527Z,96934.13
2022-08-10T14:11:43.541Z,96932.38
2022-08-10T14:14:20.290Z,96935.50
2022-08-10T14:16:51.615Z,96933.31
2022-08-10T14:19:28.188Z,96935.59
2022-08-10T14:21:59.324Z,96930.53
2022-08-10T14:24:32.704Z,96924.31
2022-08-10T14:27:09.358Z,96934.13
2022-08-10T14:29:45.774Z,96929.19
2022-08-10T14:32:19.185Z,96935.41
2022-08-10T14:36:16.342Z,96938.34
2022-08-10T14:38:02.662Z,96933.13
2022-08-10T14:40:43.007Z,96935.91
2022-08-10T14:43:28.314Z,96933.16
2022-08-10T14:46:04.075Z,96945.53
2022-08-10T14:48:41.753Z,96950.25
2022-08-10T14:51:15.766Z,96946.47
2022-08-10T14:53:51.929Z,96945.91
2022-08-10T14:56:34.919Z,96947.94
2022-08-10T14:59:09.532Z,96953.06
2022-08-10T15:02:39.014Z,96956.00
2022-08-10T15:04:37.493Z,96957.38
2022-08-10T15:07:30.727Z,96957.91
2022-08-10T15:10:04.110Z,96964.03
2022-08-10T15:12:38.419Z,96975.88
2022-08-10T15:15:16.465Z,96979.28
2022-08-10T15:17:52.801Z,96978.63
2022-08-10T15:20:28.686Z,96979.00
2022-08-10T15:23:05.638Z,96982.72
2022-08-10T15:25:41.375Z,96986.47
2022-08-10T15:28:37.268Z,96992.16
2022-08-10T15:31:22.736Z,96990.84
2022-08-10T15:34:12.888Z,96994.97
2022-08-10T15:37:40.670Z,96994.97
2022-08-10T15:40:24.544Z,97005.81
2022-08-10T15:43:25.283Z,97005.63
2022-08-10T15:46:15.650Z,97009.00
2022-08-10T15:49:03.041Z,97008.22
2022-08-10T15:52:01.740Z,97011.59
2022-08-10T15:54:41.172Z,97014.88
2022-08-10T15:57:14.747Z,97018.75
2022-08-10T15:59:55.328Z,97023.34
2022-08-10T16:02:31.344Z,97032.97
2022-08-10T16:05:19.776Z,97030.66
2022-08-10T16:08:13.678Z,97030.91
2022-08-10T16:10:55.534Z,97038.81
2022-08-10T16:13:58.970Z,97050.91
2022-08-10T16:16:23.938Z,97052.81
2022-08-10T16:18:55.317Z,97056.34
2022-08-10T16:21:26.907Z,97062.50
2022-08-10T16:24:15.143Z,97065.16
2022-08-10T16:26:52.071Z,97071.88
2022-08-10T16:29:29.546Z,97077.53
2022-08-10T16:32:03.341Z,97076.34
2022-08-10T16:34:36.770Z,97075.38
2022-08-10T16:37:11.239Z,97073.84
2022-08-10T16:39:59.881Z,97073.56
2022-08-10T16:42:36.048Z,97079.22
2022-08-10T16:45:31.044Z,97085.25
2022-08-10T16:48:02.836Z,97083.00
2022-08-10T16:50:42.801Z,97089.50
2022-08-10T16:53:19.463Z,97088.19
2022-08-10T16:55:55.387Z,97088.25
2022-08-10T16:58:37.408Z,97090.75
2022-08-10T17:01:18.792Z,97091.13
2022-08-10T17:04:07.229Z,97101.31
2022-08-10T17:06:56.479Z,97103.56
2022-08-10T17:09:33.509Z,97108.53
2022-08-10T17:12:13.182Z,97107.88
2022-08-10T17:14:44.617Z,97108.56
2022-08-10T17:17:24.072Z,97107.53
2022-08-10T17:20:30.219Z,97117.22
2022-08-10T17:22:54.946Z,97118.03
2022-08-10T17:25:46.164Z,97116.22
2022-08-10T17:28:34.659Z,97118.56
2022-08-10T17:31:53.221Z,97121.84
2022-08-10T17:34:22.804Z,97122.06
2022-08-10T17:36:59.170Z,97116.25
2022-08-10T17:39:41.245Z,97111.44
2022-08-10T17:42:12.514Z,97115.75
2022-08-10T17:44:46.632Z,97111.25
2022-08-10T17:47:18.310Z,97109.59
2022-08-10T17:49:48.669Z,97113.78
2022-08-10T17:52:24.666Z,97115.28
2022-08-10T17:55:08.944Z,97107.16
2022-08-10T17:57:41.172Z,97104.34
2022-08-10T18:00:15.906Z,97102.34
2022-08-10T18:02:49.411Z,97112.31
2022-08-10T18:05:20.403Z,97110.16
2022-08-10T18:07:54.865Z,97112.66
2022-08-10T18:10:25.183Z,97112.69
2022-08-10T18:12:59.374Z,97107.84
2022-08-10T18:15:33.788Z,97118.00
2022-08-10T18:18:05.074Z,97113.81
2022-08-10T18:20:40.646Z,97115.50
2022-08-10T18:23:12.495Z,97114.63
2022-08-10T18:25:45.436Z,97108.03
2022-08-10T18:28:22.396Z,97102.03
2022-08-10T18:30:57.236Z,97103.03
2022-08-10T18:33:33.492Z,97108.03
2022-08-10T18:36:09.455Z,97111.50
2022-08-10T18:38:41.714Z,97110.00
2022-08-10T18:41:17.580Z,97112.31
2022-08-10T18:44:09.921Z,97105.69
2022-08-10T18:46:47.531Z,97112.69
2022-08-10T18:49:42.921Z,97109.50
2022-08-10T18:52:16.619Z,97114.63
2022-08-10T18:54:55.459Z,97112.97
2022-08-10T18:57:47.327Z,97115.78
2022-08-10T19:00:20.746Z,97115.97
2022-08-10T19:03:29.635Z,97109.16
2022-08-10T19:06:14.117Z,97104.34
2022-08-10T19:09:09.657Z,97108.34
2022-08-10T19:12:06.865Z,97106.34
2022-08-10T19:15:23.772Z,97110.50
2022-08-10T19:18:03.936Z,97100.88
2022-08-10T19:20:55.630Z,97094.91
2022-08-10T19:23:40.963Z,97094.56
2022-08-10T19:26:44.622Z,97097.56
2022-08-10T19:30:08.712Z,97099.38
2022-08-10T19:32:33.720Z,97103.34
2022-08-10T19:35:10.451Z,97101.84
2022-08-10T19:38:00.614Z,97104.03
2022-08-10T19:41:12.528Z,97103.19
2022-08-10T19:44:00.807Z,97101.88
2022-08-10T19:46:58.220Z,97101.06
2022-08-10T19:49:45.428Z,97099.38
2022-08-10T19:52:42.527Z,97108.66
2022-08-10T19:55:43.679Z,97113.97
2022-08-10T19:59:00.439Z,97121.94
2022-08-10T20:01:55.269Z,97124.19
2022-08-10T20:04:28.856Z,97125.88
2022-08-10T20:07:31.904Z,97123.53
2022-08-10T20:10:10.334Z,97130.78
2022-08-10T20:13:04.523Z,97140.28
2022-08-10T20:15:41.858Z,97138.72
2022-08-10T20:18:25.433Z,97132.94
2022-08-10T20:21:27.213Z,97138.88
2022-08-10T20:24:12.180Z,97142.03
2022-08-10T20:27:08.894Z,97140.88
2022-08-10T20:29:57.821Z,97134.38
2022-08-10T20:32:36.273Z,97144.34
2022-08-10T20:35:16.764Z,97146.00
2022-08-10T20:38:15.074Z,97154.44
2022-08-10T20:41:17.033Z,97156.13
2022-08-10T20:43:58.931Z,97159.88
2022-08-10T20:47:07.636Z,97143.66
2022-08-10T20:49:48.390Z,97150.97
2022-08-10T20:52:18.319Z,97146.81
2022-08-10T20:54:59.585Z,97142.69
2022-08-10T20:57:54.614Z,97132.06
2022-08-10T21:00:53.179Z,97142.03
2022-08-10T21:03:33.222Z,97135.06
2022-08-10T21:06:41.778Z,97138.22
2022-08-10T21:09:46.845Z,97133.44
2022-08-10T21:12:16.711Z,97133.03
2022-08-10T21:14:54.683Z,97137.72
2022-08-10T21:17:42.269Z,97141.63
2022-08-10T21:20:33.581Z,97143.66
2022-08-10T21:23:08.418Z,97151.09
2022-08-10T21:26:11.419Z,97149.75
2022-08-10T21:28:59.895Z,97155.47
2022-08-10T21:31:53.258Z,97155.56
2022-08-10T21:35:02.006Z,97153.91
2022-08-10T21:37:39.981Z,97162.63
2022-08-10T21:40:39.131Z,97169.28
2022-08-10T21:44:01.575Z,97161.38
2022-08-10T21:47:31.094Z,97163.84
2022-08-10T21:50:28.985Z,97168.44
2022-08-10T21:53:43.748Z,97166.44
2022-08-10T21:57:07.828Z,97178.09
2022-08-10T22:03:24.519Z,97179.88
2022-08-10T22:06:14.544Z,97168.75
2022-08-10T22:09:16.221Z,97172.81
2022-08-10T22:12:24.679Z,97179.53
2022-08-10T22:16:03.061Z,97189.53
2022-08-10T22:18:58.714Z,97187.63
2022-08-10T22:21:58.699Z,97201.75
2022-08-10T22:25:20.006Z,97200.94
2022-08-10T22:28:17.930Z,97200.22
2022-08-10T22:31:40.029Z,97195.63
2022-08-10T22:34:46.484Z,97188.63
2022-08-10T22:38:15.854Z,97188.31
2022-08-10T22:41:06.514Z,97181.06
2022-08-10T22:43:56.083Z,97186.84
2022-08-10T22:46:52.263Z,97182.59
2022-08-10T22:49:26.315Z,97182.59
2022-08-10T22:52:04.893Z,97184.66
2022-08-10T22:55:15.720Z,97180.91
2022-08-10T22:58:05.637Z,97181.88
2022-08-10T23:00:36.271Z,97182.34
2022-08-10T23:03:23.202Z,97186.03
2022-08-10T23:06:18.673Z,97187.88
2022-08-10T23:08:58.389Z,97194.63
2022-08-10T23:11:35.324Z,97192.97
2022-08-10T23:14:08.621Z,97195.81
2022-08-10T23:17:09.674Z,97186.78
2022-08-10T23:19:48.885Z,97184.47
2022-08-10T23:22:21.002Z,97182.19
2022-08-10T23:24:56.869Z,97177.69
2022-08-10T23:27:39.287Z,97165.78
2022-08-10T23:30:19.107Z,97173.03
2022-08-10T23:32:53.338Z,97178.50
2022-08-10T23:36:29.447Z,97177.78
2022-08-10T23:38:22.684Z,97174.81
2022-08-10T23:40:54.999Z,97177.47
2022-08-10T23:44:03.399Z,97178.84
2022-08-10T23:46:39.517Z,97182.09
2022-08-10T23:49:13.414Z,97191.16
2022-08-10T23:51:55.697Z,97192.09
2022-08-10T23:54:27.965Z,97191.34
2022-08-10T23:57:01.157Z,97192.56
2022-08-10T23:59:33.572Z,97195.41
